createdAt,value
2019-05-09T00:00:03.986Z,7.97
2019-05-09T00:00:37.913Z,7.78
2019-05-09T00:01:14.155Z,8.25
2019-05-09T00:02:03.190Z,8.23
2019-05-09T00:02:40.084Z,8.03
2019-05-09T00:03:14.270Z,7.67
2019-05-09T00:03:48.381Z,8.28
2019-05-09T00:04:23.159Z,8.18
2019-05-09T00:04:57.464Z,7.92
2019-05-09T00:05:33.466Z,8.05
2019-05-09T00:06:07.479Z,8.60
2019-05-09T00:06:43.091Z,8.03
2019-05-09T00:07:17.470Z,7.65
2019-05-09T00:07:53.182Z,8.18
2019-05-09T00:08:27.516Z,8.18
2019-05-09T00:09:03.589Z,7.72
2019-05-09T00:09:37.465Z,8.60
2019-05-09T00:10:14.079Z,8.00
2019-05-09T00:10:47.725Z,8.03
2019-05-09T00:11:24.435Z,8.70
2019-05-09T00:11:57.805Z,8.25
2019-05-09T00:12:33.565Z,7.65
2019-05-09T00:13:07.980Z,7.53
2019-05-09T00:13:43.455Z,9.03
2019-05-09T00:14:17.803Z,7.65
2019-05-09T00:14:53.977Z,8.13
2019-05-09T00:15:28.010Z,8.18
2019-05-09T00:16:03.663Z,8.15
2019-05-09T00:16:37.979Z,7.78
2019-05-09T00:17:14.089Z,8.05
2019-05-09T00:17:48.304Z,8.23
2019-05-09T00:18:23.284Z,8.30
2019-05-09T00:18:57.616Z,8.03
2019-05-09T00:19:33.342Z,7.67
2019-05-09T00:20:14.536Z,7.67
2019-05-09T00:20:56.280Z,7.22
2019-05-09T00:21:34.882Z,7.37
2019-05-09T00:22:09.110Z,7.90
2019-05-09T00:22:43.618Z,7.22
2019-05-09T00:23:24.694Z,7.45
2019-05-09T00:23:58.915Z,8.25
2019-05-09T00:24:33.328Z,8.23
2019-05-09T00:25:07.864Z,7.78
2019-05-09T00:25:43.291Z,7.72
2019-05-09T00:26:17.945Z,8.63
2019-05-09T00:26:53.335Z,7.70
2019-05-09T00:27:27.555Z,7.85
2019-05-09T00:28:04.053Z,7.83
2019-05-09T00:28:40.654Z,7.05
2019-05-09T00:29:27.143Z,8.43
2019-05-09T00:30:03.724Z,8.83
2019-05-09T00:30:56.341Z,7.37
2019-05-09T00:31:49.580Z,7.60
2019-05-09T00:32:28.989Z,7.08
2019-05-09T00:33:03.780Z,7.53
2019-05-09T00:33:37.988Z,7.60
2019-05-09T00:34:14.680Z,8.03
2019-05-09T00:34:57.393Z,7.40
2019-05-09T00:35:34.993Z,7.75
2019-05-09T00:36:09.157Z,7.35
2019-05-09T00:36:43.855Z,7.37
2019-05-09T00:37:18.053Z,7.50
2019-05-09T00:38:04.543Z,7.22
2019-05-09T00:38:43.326Z,7.30
2019-05-09T00:39:17.109Z,7.55
2019-05-09T00:39:53.325Z,7.42
2019-05-09T00:40:27.445Z,7.28
2019-05-09T00:41:03.719Z,7.22
2019-05-09T00:41:37.514Z,7.75
2019-05-09T00:42:13.711Z,7.25
2019-05-09T00:42:47.602Z,7.97
2019-05-09T00:43:23.763Z,7.72
2019-05-09T00:44:03.691Z,7.12
2019-05-09T00:44:39.613Z,7.65
2019-05-09T00:45:33.445Z,7.00
2019-05-09T00:46:26.882Z,7.60
2019-05-09T00:47:10.150Z,6.80
2019-05-09T00:47:44.443Z,6.97
2019-05-09T00:48:23.053Z,7.30
2019-05-09T00:49:05.102Z,7.20
2019-05-09T00:49:39.446Z,7.67
2019-05-09T00:50:13.682Z,7.37
2019-05-09T00:50:48.055Z,7.12
2019-05-09T00:51:23.278Z,7.10
2019-05-09T00:51:57.867Z,7.25
2019-05-09T00:52:33.917Z,7.30
2019-05-09T00:53:08.149Z,7.62
2019-05-09T00:53:44.268Z,7.10
2019-05-09T00:54:18.210Z,6.90
2019-05-09T00:54:53.203Z,6.45
2019-05-09T00:55:27.626Z,7.20
2019-05-09T00:56:04.229Z,7.40
2019-05-09T00:56:37.938Z,6.92
2019-05-09T00:57:14.283Z,6.83
2019-05-09T00:57:48.527Z,7.37
2019-05-09T00:58:24.134Z,7.22
2019-05-09T00:59:00.511Z,7.00
2019-05-09T00:59:34.805Z,7.20
2019-05-09T01:00:14.620Z,7.42
2019-05-09T01:00:49.085Z,6.72
2019-05-09T01:01:23.965Z,7.22
2019-05-09T01:01:58.501Z,6.75
2019-05-09T01:02:34.025Z,6.10
2019-05-09T01:03:08.497Z,7.65
2019-05-09T01:03:43.361Z,6.78
2019-05-09T01:04:17.648Z,7.40
2019-05-09T01:04:53.143Z,7.25
2019-05-09T01:05:27.420Z,6.72
2019-05-09T01:06:04.203Z,6.80
2019-05-09T01:06:37.705Z,7.00
2019-05-09T01:07:13.924Z,7.12
2019-05-09T01:07:48.162Z,7.05
2019-05-09T01:08:24.177Z,6.87
2019-05-09T01:08:58.683Z,6.97
2019-05-09T01:09:33.514Z,6.87
2019-05-09T01:10:07.938Z,6.87
2019-05-09T01:10:43.640Z,7.40
2019-05-09T01:12:04.646Z,6.47
2019-05-09T01:12:38.925Z,6.20
2019-05-09T01:13:14.227Z,6.65
2019-05-09T01:13:48.484Z,7.20
2019-05-09T01:14:23.596Z,6.67
2019-05-09T01:14:58.250Z,6.90
2019-05-09T01:15:33.458Z,7.05
2019-05-09T01:16:07.756Z,6.30
2019-05-09T01:16:43.954Z,6.22
2019-05-09T01:17:17.913Z,6.83
2019-05-09T01:17:53.640Z,7.05
2019-05-09T01:18:28.079Z,7.20
2019-05-09T01:19:03.597Z,6.47
2019-05-09T01:19:38.020Z,6.25
2019-05-09T01:20:14.571Z,6.60
2019-05-09T01:20:48.670Z,6.92
2019-05-09T01:21:23.984Z,6.95
2019-05-09T01:21:59.144Z,6.62
2019-05-09T01:22:33.380Z,6.80
2019-05-09T01:23:07.666Z,7.28
2019-05-09T01:23:43.588Z,6.95
2019-05-09T01:24:18.091Z,6.58
2019-05-09T01:24:53.398Z,6.67
2019-05-09T01:25:27.818Z,8.08
2019-05-09T01:26:03.818Z,7.10
2019-05-09T01:26:38.168Z,6.87
2019-05-09T01:27:14.184Z,6.83
2019-05-09T01:27:48.487Z,7.33
2019-05-09T01:28:23.309Z,7.22
2019-05-09T01:28:57.629Z,7.55
2019-05-09T01:29:33.761Z,7.62
2019-05-09T01:30:08.277Z,6.70
2019-05-09T01:30:43.863Z,6.80
2019-05-09T01:31:18.335Z,7.50
2019-05-09T01:31:54.166Z,6.47
2019-05-09T01:32:43.350Z,6.83
2019-05-09T01:33:24.471Z,7.42
2019-05-09T01:34:07.747Z,6.65
2019-05-09T01:34:43.694Z,6.72
2019-05-09T01:35:18.189Z,6.87
2019-05-09T01:35:54.065Z,6.97
2019-05-09T01:36:47.527Z,6.87
2019-05-09T01:37:23.728Z,6.90
2019-05-09T01:37:58.118Z,6.85
2019-05-09T01:38:33.981Z,6.78
2019-05-09T01:39:08.069Z,7.60
2019-05-09T01:39:44.063Z,7.17
2019-05-09T01:40:18.249Z,7.15
2019-05-09T01:40:53.272Z,7.35
2019-05-09T01:41:31.006Z,7.17
2019-05-09T01:42:03.589Z,8.13
2019-05-09T01:42:37.861Z,7.67
2019-05-09T01:43:13.884Z,7.00
2019-05-09T01:43:47.735Z,7.67
2019-05-09T01:44:23.830Z,7.05
2019-05-09T01:44:57.585Z,7.22
2019-05-09T01:45:34.072Z,6.65
2019-05-09T01:46:07.730Z,7.70
2019-05-09T01:46:43.592Z,7.05
2019-05-09T01:47:18.014Z,7.40
2019-05-09T01:47:53.787Z,6.97
2019-05-09T01:48:28.845Z,6.95
2019-05-09T01:49:03.323Z,7.22
2019-05-09T01:49:37.495Z,6.87
2019-05-09T01:50:13.990Z,6.95
2019-05-09T01:50:48.187Z,7.60
2019-05-09T01:51:23.352Z,7.03
2019-05-09T01:51:57.790Z,7.47
2019-05-09T01:52:33.768Z,7.75
2019-05-09T01:53:08.133Z,6.80
2019-05-09T01:53:48.212Z,7.03
2019-05-09T01:54:23.759Z,7.08
2019-05-09T01:54:58.220Z,6.47
2019-05-09T01:55:53.829Z,6.95
2019-05-09T01:56:27.399Z,7.25
2019-05-09T01:57:03.270Z,6.75
2019-05-09T01:57:37.925Z,7.47
2019-05-09T01:58:13.858Z,6.62
2019-05-09T01:58:48.210Z,6.90
2019-05-09T01:59:24.311Z,6.50
2019-05-09T01:59:58.685Z,6.53
2019-05-09T02:00:33.247Z,7.90
2019-05-09T02:01:08.892Z,7.97
2019-05-09T02:01:43.559Z,7.97
2019-05-09T02:02:17.934Z,7.45
2019-05-09T02:02:54.049Z,6.95
2019-05-09T02:03:28.614Z,6.97
2019-05-09T02:04:04.095Z,6.90
2019-05-09T02:04:38.523Z,6.72
2019-05-09T02:05:13.570Z,7.10
2019-05-09T02:05:47.789Z,6.62
2019-05-09T02:06:24.212Z,7.20
2019-05-09T02:06:57.992Z,6.62
2019-05-09T02:07:33.205Z,7.75
2019-05-09T02:08:07.933Z,7.37
2019-05-09T02:08:43.799Z,7.20
2019-05-09T02:09:17.869Z,7.28
2019-05-09T02:09:53.974Z,7.22
2019-05-09T02:10:28.255Z,7.70
2019-05-09T02:11:03.833Z,7.12
2019-05-09T02:11:42.534Z,7.05
2019-05-09T02:12:15.194Z,7.70
2019-05-09T02:12:49.415Z,8.33
2019-05-09T02:13:23.891Z,7.35
2019-05-09T02:13:58.190Z,6.85
2019-05-09T02:14:38.950Z,6.22
2019-05-09T02:15:34.075Z,7.37
2019-05-09T02:16:27.441Z,7.03
2019-05-09T02:17:13.977Z,7.30
2019-05-09T02:17:58.906Z,7.40
2019-05-09T02:18:34.856Z,6.40
2019-05-09T02:19:14.173Z,6.92
2019-05-09T02:19:48.578Z,6.67
2019-05-09T02:20:24.190Z,8.10
2019-05-09T02:20:58.496Z,8.18
2019-05-09T02:21:34.532Z,8.10
2019-05-09T02:22:28.000Z,7.40
2019-05-09T02:23:03.677Z,7.37
2019-05-09T02:23:38.494Z,8.18
2019-05-09T02:24:14.049Z,7.20
2019-05-09T02:24:49.872Z,7.33
2019-05-09T02:25:24.322Z,7.28
2019-05-09T02:25:58.715Z,7.40
2019-05-09T02:26:33.458Z,7.67
2019-05-09T02:27:07.851Z,7.10
2019-05-09T02:27:43.665Z,7.10
2019-05-09T02:28:18.116Z,6.90
2019-05-09T02:28:53.838Z,7.33
2019-05-09T02:29:28.350Z,7.20
2019-05-09T02:30:05.851Z,7.53
2019-05-09T02:30:38.780Z,6.90
2019-05-09T02:31:16.154Z,6.80
2019-05-09T02:31:49.004Z,6.62
2019-05-09T02:32:24.162Z,7.70
2019-05-09T02:32:58.613Z,7.70
2019-05-09T02:33:34.698Z,7.67
2019-05-09T02:34:08.722Z,8.25
2019-05-09T02:34:44.265Z,8.08
2019-05-09T02:35:18.735Z,7.65
2019-05-09T02:36:00.877Z,7.15
2019-05-09T02:36:29.646Z,6.92
2019-05-09T02:37:03.936Z,7.67
2019-05-09T02:37:39.124Z,6.83
2019-05-09T02:38:13.546Z,7.70
2019-05-09T02:38:48.637Z,7.92
2019-05-09T02:39:23.435Z,9.00
2019-05-09T02:39:59.182Z,8.70
2019-05-09T02:40:33.631Z,8.33
2019-05-09T02:41:08.863Z,8.58
2019-05-09T02:41:59.645Z,8.00
2019-05-09T02:42:19.741Z,9.00
2019-05-09T02:42:54.143Z,8.58
2019-05-09T02:43:29.215Z,9.70
2019-05-09T02:44:03.703Z,8.30
2019-05-09T02:44:39.487Z,9.10
2019-05-09T02:45:14.256Z,8.85
2019-05-09T02:45:59.399Z,8.08
2019-05-09T02:46:42.097Z,8.65
2019-05-09T02:47:19.599Z,8.48
2019-05-09T02:47:54.801Z,8.20
2019-05-09T02:48:29.382Z,7.92
2019-05-09T02:49:03.876Z,8.65
2019-05-09T02:49:39.187Z,8.58
2019-05-09T02:50:14.237Z,8.03
2019-05-09T02:50:48.801Z,8.53
2019-05-09T02:51:23.680Z,9.48
2019-05-09T02:51:59.228Z,9.13
2019-05-09T02:52:34.133Z,9.03
2019-05-09T02:53:08.477Z,9.78
2019-05-09T02:53:42.628Z,8.73
2019-05-09T02:54:19.049Z,9.50
2019-05-09T02:54:53.197Z,9.18
2019-05-09T02:55:28.833Z,9.05
2019-05-09T02:56:03.039Z,9.13
2019-05-09T02:56:38.577Z,9.75
2019-05-09T02:57:13.064Z,9.55
2019-05-09T02:57:49.017Z,9.40
2019-05-09T02:58:28.113Z,8.45
2019-05-09T02:59:20.563Z,8.68
2019-05-09T03:00:14.233Z,9.08
2019-05-09T03:01:08.434Z,8.58
2019-05-09T03:01:53.766Z,9.05
2019-05-09T03:02:48.748Z,9.35
2019-05-09T03:03:28.828Z,8.78
2019-05-09T03:04:01.949Z,8.98
2019-05-09T03:04:39.097Z,10.03
2019-05-09T03:05:12.296Z,8.73
2019-05-09T03:05:48.736Z,8.73
2019-05-09T03:06:22.798Z,9.63
2019-05-09T03:06:59.817Z,8.73
2019-05-09T03:07:52.020Z,8.98
2019-05-09T03:08:29.363Z,9.55
2019-05-09T03:09:08.945Z,9.95
2019-05-09T03:09:43.344Z,9.03
2019-05-09T03:10:19.201Z,9.00
2019-05-09T03:10:53.924Z,8.40
2019-05-09T03:11:29.083Z,8.83
2019-05-09T03:12:21.124Z,9.28
2019-05-09T03:12:40.052Z,10.18
2019-05-09T03:13:14.620Z,9.15
2019-05-09T03:13:49.741Z,8.90
2019-05-09T03:14:24.122Z,10.32
2019-05-09T03:14:58.823Z,9.93
2019-05-09T03:15:34.728Z,9.70
2019-05-09T03:16:12.593Z,9.43
2019-05-09T03:16:49.134Z,10.03
2019-05-09T03:17:22.963Z,9.70
2019-05-09T03:17:59.811Z,10.00
2019-05-09T03:18:33.579Z,9.05
2019-05-09T03:19:09.137Z,8.95
2019-05-09T03:19:43.698Z,9.23
2019-05-09T03:20:30.764Z,9.20
2019-05-09T03:21:23.955Z,9.25
2019-05-09T03:22:02.146Z,8.68
2019-05-09T03:22:39.449Z,8.53
2019-05-09T03:23:12.624Z,8.70
2019-05-09T03:23:48.896Z,9.53
2019-05-09T03:24:22.830Z,8.93
2019-05-09T03:24:58.918Z,9.58
2019-05-09T03:25:33.878Z,8.68
2019-05-09T03:26:09.757Z,8.23
2019-05-09T03:26:49.402Z,8.65
2019-05-09T03:27:28.900Z,8.98
2019-05-09T03:28:09.832Z,8.55
2019-05-09T03:29:03.285Z,8.70
2019-05-09T03:29:44.528Z,9.15
2019-05-09T03:30:22.306Z,8.25
2019-05-09T03:30:59.247Z,9.00
2019-05-09T03:31:33.331Z,8.65
2019-05-09T03:32:09.144Z,9.33
2019-05-09T03:32:43.641Z,9.05
2019-05-09T03:33:20.109Z,9.53
2019-05-09T03:33:53.856Z,10.45
2019-05-09T03:34:30.141Z,9.58
2019-05-09T03:35:04.814Z,10.23
2019-05-09T03:35:39.057Z,10.00
2019-05-09T03:36:13.222Z,10.72
2019-05-09T03:36:47.704Z,10.70
2019-05-09T03:37:22.280Z,9.55
2019-05-09T03:38:17.851Z,9.98
2019-05-09T03:38:51.444Z,9.40
2019-05-09T03:39:27.598Z,10.28
2019-05-09T03:40:01.661Z,9.78
2019-05-09T03:40:37.737Z,9.15
2019-05-09T03:41:12.232Z,9.58
2019-05-09T03:41:48.761Z,10.13
2019-05-09T03:42:36.459Z,9.68
2019-05-09T03:42:58.461Z,9.60
2019-05-09T03:43:33.197Z,9.63
2019-05-09T03:44:07.431Z,8.90
2019-05-09T03:44:41.719Z,9.73
2019-05-09T03:45:18.323Z,10.58
2019-05-09T03:46:01.506Z,9.55
2019-05-09T03:46:55.058Z,10.58
2019-05-09T03:47:42.160Z,10.93
2019-05-09T03:48:21.470Z,10.20
2019-05-09T03:48:58.149Z,9.93
2019-05-09T03:49:32.204Z,9.83
2019-05-09T03:50:12.910Z,10.85
2019-05-09T03:50:48.705Z,10.13
2019-05-09T03:51:22.983Z,10.53
2019-05-09T03:51:58.488Z,9.78
2019-05-09T03:52:32.725Z,9.58
2019-05-09T03:53:08.418Z,10.18
2019-05-09T03:53:42.973Z,11.78
2019-05-09T03:54:18.402Z,9.85
2019-05-09T03:54:52.747Z,10.88
2019-05-09T03:55:31.470Z,10.78
2019-05-09T03:56:08.025Z,11.08
2019-05-09T03:56:47.813Z,10.65
2019-05-09T03:57:28.600Z,10.70
2019-05-09T03:58:13.187Z,10.40
2019-05-09T03:58:47.563Z,10.40
2019-05-09T03:59:21.764Z,11.60
2019-05-09T03:59:57.280Z,12.47
2019-05-09T04:00:32.141Z,11.83
2019-05-09T04:01:10.366Z,11.28
2019-05-09T04:01:42.277Z,12.13
2019-05-09T04:02:17.841Z,13.72
2019-05-09T04:02:52.302Z,13.70
2019-05-09T04:03:27.668Z,14.55
2019-05-09T04:04:02.042Z,12.20
2019-05-09T04:04:38.252Z,12.07
2019-05-09T04:05:12.223Z,12.53
2019-05-09T04:05:58.438Z,11.63
2019-05-09T04:06:22.104Z,12.60
2019-05-09T04:06:58.079Z,12.13
2019-05-09T04:07:32.362Z,13.40
2019-05-09T04:08:28.058Z,13.48
2019-05-09T04:09:01.854Z,13.70
2019-05-09T04:09:37.463Z,14.50
2019-05-09T04:10:12.072Z,13.55
2019-05-09T04:10:50.267Z,14.33
2019-05-09T04:11:23.918Z,17.90
2019-05-09T04:12:00.297Z,15.83
2019-05-09T04:12:34.768Z,13.98
2019-05-09T04:13:11.138Z,13.62
2019-05-09T04:13:51.775Z,14.18
2019-05-09T04:14:28.183Z,12.35
2019-05-09T04:15:23.405Z,13.05
2019-05-09T04:16:02.543Z,11.63
2019-05-09T04:16:38.078Z,10.63
2019-05-09T04:17:12.936Z,10.98
2019-05-09T04:17:47.617Z,13.15
2019-05-09T04:18:22.007Z,12.37
2019-05-09T04:18:58.124Z,11.60
2019-05-09T04:19:32.552Z,12.45
2019-05-09T04:20:08.191Z,12.58
2019-05-09T04:20:42.555Z,12.90
2019-05-09T04:21:17.566Z,12.45
2019-05-09T04:21:52.013Z,13.18
2019-05-09T04:22:27.176Z,12.82
2019-05-09T04:23:01.461Z,11.68
2019-05-09T04:23:37.697Z,13.75
2019-05-09T04:24:11.662Z,13.18
2019-05-09T04:24:47.418Z,13.58
2019-05-09T04:25:27.437Z,14.55
2019-05-09T04:26:07.612Z,13.35
2019-05-09T04:27:01.162Z,13.20
2019-05-09T04:27:37.426Z,11.30
2019-05-09T04:28:11.395Z,13.20
2019-05-09T04:28:47.235Z,11.95
2019-05-09T04:29:21.556Z,11.90
2019-05-09T04:29:57.449Z,12.37
2019-05-09T04:30:31.791Z,11.73
2019-05-09T04:31:07.394Z,12.00
2019-05-09T04:31:41.714Z,13.00
2019-05-09T04:32:18.135Z,13.88
2019-05-09T04:32:51.947Z,12.63
2019-05-09T04:33:27.974Z,13.18
2019-05-09T04:34:01.923Z,13.53
2019-05-09T04:34:38.081Z,14.13
2019-05-09T04:35:12.099Z,13.68
2019-05-09T04:35:47.586Z,13.43
2019-05-09T04:36:38.535Z,14.45
2019-05-09T04:37:12.586Z,11.57
2019-05-09T04:37:48.299Z,13.83
2019-05-09T04:38:22.750Z,12.63
2019-05-09T04:38:57.828Z,13.32
2019-05-09T04:39:32.074Z,13.20
2019-05-09T04:40:08.286Z,13.58
2019-05-09T04:40:45.009Z,13.75
2019-05-09T04:41:23.639Z,13.78
2019-05-09T04:41:55.110Z,14.03
2019-05-09T04:42:29.929Z,12.90
2019-05-09T04:43:13.973Z,12.25
2019-05-09T04:43:41.623Z,13.18
2019-05-09T04:44:28.413Z,13.45
2019-05-09T04:45:10.498Z,13.85
2019-05-09T04:45:53.255Z,12.07
2019-05-09T04:46:27.730Z,12.05
2019-05-09T04:47:03.568Z,13.40
2019-05-09T04:47:41.428Z,13.35
2019-05-09T04:48:32.897Z,12.80
2019-05-09T04:49:08.198Z,12.13
2019-05-09T04:49:45.267Z,12.20
2019-05-09T04:50:23.519Z,11.30
2019-05-09T04:50:56.693Z,12.73
2019-05-09T04:51:30.504Z,13.48
2019-05-09T04:52:04.662Z,13.48
2019-05-09T04:52:40.005Z,13.55
2019-05-09T04:53:14.314Z,12.50
2019-05-09T04:53:48.447Z,13.55
2019-05-09T04:54:22.611Z,12.70
2019-05-09T04:54:57.598Z,13.35
2019-05-09T04:55:33.560Z,14.35
2019-05-09T04:56:17.532Z,13.72
2019-05-09T04:56:53.851Z,13.10
2019-05-09T04:57:27.922Z,12.53
2019-05-09T04:58:02.276Z,12.70
2019-05-09T04:58:37.653Z,14.03
2019-05-09T04:59:11.915Z,13.30
2019-05-09T04:59:47.571Z,13.65
2019-05-09T05:00:28.272Z,13.43
2019-05-09T05:01:21.645Z,14.45
2019-05-09T05:02:14.798Z,13.48
2019-05-09T05:02:50.426Z,13.55
2019-05-09T05:03:24.733Z,13.20
2019-05-09T05:03:58.877Z,14.13
2019-05-09T05:04:33.246Z,13.32
2019-05-09T05:05:08.173Z,13.62
2019-05-09T05:05:42.370Z,13.35
2019-05-09T05:06:20.310Z,15.10
2019-05-09T05:06:52.612Z,13.88
2019-05-09T05:07:28.679Z,14.78
2019-05-09T05:08:02.752Z,13.08
2019-05-09T05:08:37.575Z,13.93
2019-05-09T05:09:11.751Z,13.98
2019-05-09T05:09:47.780Z,14.90
2019-05-09T05:10:21.719Z,13.53
2019-05-09T05:10:58.084Z,13.15
2019-05-09T05:11:31.775Z,12.47
2019-05-09T05:12:08.202Z,13.50
2019-05-09T05:12:42.121Z,13.83
2019-05-09T05:13:25.717Z,12.95
2019-05-09T05:13:52.140Z,12.88
2019-05-09T05:14:28.138Z,12.63
2019-05-09T05:15:02.286Z,13.60
2019-05-09T05:15:37.767Z,13.50
2019-05-09T05:16:11.957Z,12.43
2019-05-09T05:16:52.363Z,13.72
2019-05-09T05:17:21.961Z,13.30
2019-05-09T05:17:58.110Z,13.00
2019-05-09T05:18:31.901Z,12.85
2019-05-09T05:19:07.507Z,14.15
2019-05-09T05:19:41.806Z,15.58
2019-05-09T05:20:19.648Z,14.58
2019-05-09T05:20:53.905Z,14.55
2019-05-09T05:21:28.655Z,14.58
2019-05-09T05:22:18.286Z,13.35
2019-05-09T05:23:00.617Z,13.98
2019-05-09T05:23:42.072Z,13.95
2019-05-09T05:24:24.366Z,14.10
2019-05-09T05:25:00.871Z,13.93
2019-05-09T05:25:35.232Z,14.20
2019-05-09T05:26:09.528Z,13.98
2019-05-09T05:26:45.245Z,15.83
2019-05-09T05:27:19.376Z,15.25
2019-05-09T05:27:53.423Z,15.65
2019-05-09T05:28:27.906Z,15.60
2019-05-09T05:29:02.460Z,15.00
2019-05-09T05:29:38.315Z,14.50
2019-05-09T05:30:13.172Z,15.30
2019-05-09T05:30:47.762Z,16.60
2019-05-09T05:31:22.104Z,15.50
2019-05-09T05:31:58.060Z,15.48
2019-05-09T05:32:38.694Z,15.58
2019-05-09T05:33:32.004Z,14.45
2019-05-09T05:34:13.713Z,15.53
2019-05-09T05:35:07.665Z,15.68
2019-05-09T05:35:44.568Z,15.75
2019-05-09T05:36:18.936Z,15.90
2019-05-09T05:36:53.162Z,16.85
2019-05-09T05:37:28.078Z,16.20
2019-05-09T05:38:02.547Z,14.70
2019-05-09T05:38:37.708Z,17.98
2019-05-09T05:39:12.184Z,16.82
2019-05-09T05:39:47.740Z,14.87
2019-05-09T05:40:22.112Z,16.37
2019-05-09T05:40:57.855Z,16.85
2019-05-09T05:41:32.255Z,17.52
2019-05-09T05:42:08.307Z,16.37
2019-05-09T05:42:42.896Z,18.40
2019-05-09T05:43:17.528Z,17.37
2019-05-09T05:43:51.762Z,19.52
2019-05-09T05:44:28.127Z,18.55
2019-05-09T05:45:02.003Z,17.20
2019-05-09T05:45:43.305Z,16.65
2019-05-09T05:46:37.977Z,17.52
2019-05-09T05:47:18.682Z,15.65
2019-05-09T05:47:57.643Z,18.50
2019-05-09T05:48:32.297Z,16.42
2019-05-09T05:49:08.040Z,17.90
2019-05-09T05:49:42.443Z,17.12
2019-05-09T05:50:17.626Z,16.82
2019-05-09T05:50:52.089Z,16.17
2019-05-09T05:51:27.688Z,16.80
2019-05-09T05:52:02.188Z,18.12
2019-05-09T05:52:37.552Z,17.73
2019-05-09T05:53:11.947Z,17.48
2019-05-09T05:53:47.965Z,17.27
2019-05-09T05:54:22.608Z,16.40
2019-05-09T05:54:58.223Z,15.68
2019-05-09T05:55:32.661Z,15.80
2019-05-09T05:56:08.505Z,17.62
2019-05-09T05:56:42.912Z,18.20
2019-05-09T05:57:17.744Z,17.55
2019-05-09T05:57:51.985Z,18.07
2019-05-09T05:58:28.161Z,18.80
2019-05-09T05:59:02.138Z,19.20
2019-05-09T05:59:40.403Z,18.48
2019-05-09T06:00:13.886Z,18.87
2019-05-09T06:00:48.157Z,19.92
2019-05-09T06:01:22.367Z,21.20
2019-05-09T06:01:58.338Z,20.00
2019-05-09T06:02:32.623Z,19.60
2019-05-09T06:03:08.793Z,18.32
2019-05-09T06:03:42.752Z,19.95
2019-05-09T06:04:18.546Z,20.75
2019-05-09T06:04:52.837Z,21.45
2019-05-09T06:05:27.813Z,18.65
2019-05-09T06:06:02.388Z,20.30
2019-05-09T06:06:37.478Z,19.75
2019-05-09T06:07:11.765Z,19.82
2019-05-09T06:07:48.194Z,19.40
2019-05-09T06:08:21.893Z,17.75
2019-05-09T06:08:57.943Z,19.25
2019-05-09T06:09:32.155Z,17.23
2019-05-09T06:10:08.272Z,16.93
2019-05-09T06:10:42.586Z,18.07
2019-05-09T06:11:17.718Z,16.20
2019-05-09T06:11:52.182Z,18.02
2019-05-09T06:12:27.617Z,21.95
2019-05-09T06:13:01.967Z,19.77
2019-05-09T06:13:37.938Z,20.32
2019-05-09T06:14:12.113Z,19.37
2019-05-09T06:14:48.051Z,19.10
2019-05-09T06:15:22.306Z,19.67
2019-05-09T06:15:58.672Z,17.92
2019-05-09T06:16:32.500Z,16.25
2019-05-09T06:17:08.061Z,16.95
2019-05-09T06:17:42.561Z,15.75
2019-05-09T06:18:18.427Z,15.88
2019-05-09T06:18:52.887Z,17.17
2019-05-09T06:19:28.678Z,16.85
2019-05-09T06:20:03.369Z,16.97
2019-05-09T06:20:38.627Z,16.27
2019-05-09T06:21:12.856Z,16.25
2019-05-09T06:21:48.490Z,14.95
2019-05-09T06:22:23.220Z,18.02
2019-05-09T06:22:58.352Z,16.97
2019-05-09T06:23:32.615Z,16.57
2019-05-09T06:24:08.584Z,16.87
2019-05-09T06:24:42.678Z,17.10
2019-05-09T06:25:20.639Z,15.95
2019-05-09T06:25:53.243Z,15.90
2019-05-09T06:26:29.172Z,17.07
2019-05-09T06:27:06.571Z,16.35
2019-05-09T06:27:42.210Z,16.07
2019-05-09T06:28:14.938Z,16.57
2019-05-09T06:28:49.265Z,18.32
2019-05-09T06:29:23.568Z,16.75
2019-05-09T06:29:58.299Z,17.17
2019-05-09T06:30:32.870Z,16.90
2019-05-09T06:31:07.669Z,17.52
2019-05-09T06:31:42.993Z,19.10
2019-05-09T06:32:18.793Z,17.95
2019-05-09T06:32:53.207Z,17.23
2019-05-09T06:33:28.623Z,16.48
2019-05-09T06:34:03.235Z,18.45
2019-05-09T06:34:41.814Z,18.48
2019-05-09T06:35:17.589Z,19.40
2019-05-09T06:35:51.786Z,18.92
2019-05-09T06:36:28.363Z,17.05
2019-05-09T06:37:03.213Z,17.73
2019-05-09T06:37:38.319Z,19.73
2019-05-09T06:38:12.742Z,17.85
2019-05-09T06:38:48.775Z,17.80
2019-05-09T06:39:22.924Z,17.12
2019-05-09T06:39:58.286Z,18.85
2019-05-09T06:40:32.771Z,18.37
2019-05-09T06:41:08.825Z,17.98
2019-05-09T06:41:43.127Z,18.98
2019-05-09T06:42:18.308Z,19.30
2019-05-09T06:42:53.454Z,17.92
2019-05-09T06:43:29.835Z,19.27
2019-05-09T06:44:23.314Z,20.70
2019-05-09T06:45:17.985Z,20.15
2019-05-09T06:46:14.469Z,18.45
2019-05-09T06:46:53.682Z,19.85
2019-05-09T06:47:33.717Z,17.10
2019-05-09T06:48:08.019Z,17.82
2019-05-09T06:48:42.432Z,18.60
2019-05-09T06:49:27.940Z,17.98
2019-05-09T06:49:58.097Z,15.68
2019-05-09T06:50:32.307Z,19.55
2019-05-09T06:51:07.348Z,16.75
2019-05-09T06:51:41.886Z,17.95
2019-05-09T06:52:17.482Z,21.45
2019-05-09T06:52:52.279Z,19.12
2019-05-09T06:53:27.273Z,19.35
2019-05-09T06:54:01.719Z,21.17
2019-05-09T06:54:35.915Z,21.62
2019-05-09T06:55:10.446Z,17.90
2019-05-09T06:55:44.606Z,20.75
2019-05-09T06:56:18.831Z,21.85
2019-05-09T06:56:52.972Z,18.60
2019-05-09T06:57:28.135Z,22.10
2019-05-09T06:58:21.639Z,20.08
2019-05-09T06:58:58.025Z,17.92
2019-05-09T06:59:31.962Z,16.27
2019-05-09T07:00:13.312Z,18.02
2019-05-09T07:00:51.872Z,19.50
2019-05-09T07:01:37.598Z,21.00
2019-05-09T07:02:19.844Z,20.30
2019-05-09T07:03:01.960Z,16.05
2019-05-09T07:03:37.492Z,18.55
2019-05-09T07:04:21.244Z,18.40
2019-05-09T07:05:03.016Z,17.12
2019-05-09T07:05:57.580Z,19.62
2019-05-09T07:06:38.071Z,20.48
2019-05-09T07:07:19.894Z,19.32
2019-05-09T07:08:13.216Z,19.57
2019-05-09T07:08:52.228Z,19.45
2019-05-09T07:09:41.355Z,19.80
2019-05-09T07:10:17.699Z,20.62
2019-05-09T07:10:51.661Z,19.87
2019-05-09T07:11:27.573Z,21.05
2019-05-09T07:12:02.417Z,17.98
2019-05-09T07:12:37.954Z,21.52
2019-05-09T07:13:12.335Z,21.10
2019-05-09T07:13:47.239Z,19.20
2019-05-09T07:14:32.447Z,19.62
2019-05-09T07:15:04.868Z,20.12
2019-05-09T07:15:39.176Z,20.23
2019-05-09T07:16:13.265Z,19.37
2019-05-09T07:16:47.893Z,20.37
2019-05-09T07:17:22.137Z,23.50
2019-05-09T07:17:57.545Z,22.07
2019-05-09T07:18:31.974Z,21.40
2019-05-09T07:19:07.993Z,22.82
2019-05-09T07:19:43.875Z,20.37
2019-05-09T07:20:18.571Z,21.62
2019-05-09T07:20:52.896Z,22.02
2019-05-09T07:21:48.360Z,23.12
2019-05-09T07:22:29.294Z,21.07
2019-05-09T07:23:03.354Z,19.40
2019-05-09T07:23:37.645Z,21.37
2019-05-09T07:24:11.941Z,20.90
2019-05-09T07:25:09.774Z,21.35
2019-05-09T07:26:00.291Z,20.25
2019-05-09T07:26:37.216Z,21.07
2019-05-09T07:27:10.796Z,22.17
2019-05-09T07:27:45.359Z,20.27
2019-05-09T07:28:19.688Z,21.55
2019-05-09T07:28:53.746Z,22.98
2019-05-09T07:29:29.585Z,24.60
2019-05-09T07:30:10.522Z,22.87
2019-05-09T07:31:03.616Z,23.27
2019-05-09T07:31:45.233Z,24.60
2019-05-09T07:32:19.630Z,24.72
2019-05-09T07:32:59.927Z,25.27
2019-05-09T07:33:42.620Z,25.62
2019-05-09T07:34:20.956Z,23.73
2019-05-09T07:35:00.073Z,24.55
2019-05-09T07:35:34.216Z,24.82
2019-05-09T07:36:08.689Z,23.18
2019-05-09T07:36:43.045Z,21.55
2019-05-09T07:37:18.575Z,22.60
2019-05-09T07:37:52.996Z,23.95
2019-05-09T07:38:31.384Z,24.65
2019-05-09T07:39:08.838Z,23.27
2019-05-09T07:39:43.381Z,24.70
2019-05-09T07:40:18.286Z,23.22
2019-05-09T07:40:52.486Z,21.17
2019-05-09T07:41:28.215Z,20.60
2019-05-09T07:42:02.548Z,22.90
2019-05-09T07:42:39.097Z,21.17
2019-05-09T07:43:13.484Z,23.95
2019-05-09T07:43:47.939Z,22.07
2019-05-09T07:44:22.275Z,20.40
2019-05-09T07:44:58.914Z,21.85
2019-05-09T07:45:32.526Z,26.48
2019-05-09T07:46:28.296Z,25.48
2019-05-09T07:47:07.335Z,25.48
2019-05-09T07:47:41.135Z,25.77
2019-05-09T07:48:15.226Z,27.27
2019-05-09T07:48:49.694Z,22.85
2019-05-09T07:49:23.943Z,23.27
2019-05-09T07:49:58.626Z,24.02
2019-05-09T07:50:32.937Z,25.68
2019-05-09T07:51:07.851Z,21.42
2019-05-09T07:51:42.350Z,20.45
2019-05-09T07:52:18.574Z,21.37
2019-05-09T07:52:52.526Z,23.18
2019-05-09T07:53:28.400Z,24.05
2019-05-09T07:54:20.095Z,20.72
2019-05-09T07:54:38.534Z,20.20
2019-05-09T07:55:12.974Z,24.05
2019-05-09T07:55:50.228Z,20.37
2019-05-09T07:56:24.480Z,19.32
2019-05-09T07:56:58.861Z,20.27
2019-05-09T07:57:33.357Z,17.20
2019-05-09T07:58:08.259Z,19.52
2019-05-09T07:58:42.666Z,16.07
2019-05-09T07:59:18.090Z,22.90
2019-05-09T07:59:52.487Z,22.48
2019-05-09T08:00:33.125Z,21.62